createdAt,value
2023-11-07T00:01:35.926Z,0.90
2023-11-07T00:04:05.985Z,0.70
2023-11-07T00:06:34.532Z,1.03
2023-11-07T00:09:03.206Z,1.40
2023-11-07T00:11:31.654Z,1.13
2023-11-07T00:13:59.781Z,0.90
2023-11-07T00:16:28.958Z,1.10
2023-11-07T00:18:57.707Z,0.80
2023-11-07T00:21:27.417Z,1.03
2023-11-07T00:23:55.927Z,0.90
2023-11-07T00:26:24.110Z,1.10
2023-11-07T00:28:53.126Z,0.83
2023-11-07T00:31:21.338Z,0.77
2023-11-07T00:33:50.133Z,0.77
2023-11-07T00:36:19.208Z,1.10
2023-11-07T00:38:48.828Z,0.70
2023-11-07T00:41:17.093Z,1.03
2023-11-07T00:43:45.318Z,0.97
2023-11-07T00:46:13.505Z,1.10
2023-11-07T00:48:41.850Z,0.90
2023-11-07T00:51:10.243Z,0.80
2023-11-07T00:53:38.655Z,0.80
2023-11-07T00:56:10.128Z,1.00
2023-11-07T00:58:38.435Z,0.60
2023-11-07T01:01:07.968Z,1.10
2023-11-07T01:03:36.436Z,0.70
2023-11-07T01:06:06.478Z,0.90
2023-11-07T01:08:35.223Z,0.83
2023-11-07T01:11:04.313Z,1.00
2023-11-07T01:13:34.566Z,0.73
2023-11-07T01:16:03.836Z,0.80
2023-11-07T01:18:32.714Z,0.80
2023-11-07T01:21:01.090Z,0.93
2023-11-07T01:23:29.513Z,0.83
2023-11-07T01:25:57.655Z,0.93
2023-11-07T01:28:26.604Z,0.73
2023-11-07T01:30:56.240Z,0.90
2023-11-07T01:33:24.506Z,0.50
2023-11-07T01:35:52.797Z,0.60
2023-11-07T01:38:21.663Z,0.90
2023-11-07T01:40:49.949Z,0.90
2023-11-07T01:43:18.447Z,0.87
2023-11-07T01:45:46.665Z,0.87
2023-11-07T01:48:25.968Z,0.63
2023-11-07T01:50:54.708Z,0.90
2023-11-07T01:53:23.620Z,0.80
2023-11-07T01:55:53.012Z,0.80
2023-11-07T01:58:23.227Z,0.73
2023-11-07T02:00:54.814Z,1.00
2023-11-07T02:03:26.639Z,0.90
2023-11-07T02:05:55.059Z,0.67
2023-11-07T02:08:25.011Z,0.70
2023-11-07T02:10:53.798Z,0.87
2023-11-07T02:13:21.958Z,0.60
2023-11-07T02:15:50.229Z,0.80
2023-11-07T02:18:18.537Z,0.90
2023-11-07T02:20:49.301Z,0.80
2023-11-07T02:23:36.585Z,0.70
2023-11-07T02:26:05.561Z,0.83
2023-11-07T02:28:34.306Z,0.70
2023-11-07T02:31:02.488Z,1.47
2023-11-07T02:33:31.151Z,0.90
2023-11-07T02:36:00.095Z,0.80
2023-11-07T02:38:29.995Z,0.77
2023-11-07T02:40:59.867Z,0.80
2023-11-07T02:43:28.090Z,0.97
2023-11-07T02:45:56.263Z,0.93
2023-11-07T02:48:24.510Z,0.80
2023-11-07T02:50:52.769Z,0.80
2023-11-07T02:53:20.934Z,0.90
2023-11-07T02:55:49.195Z,0.60
2023-11-07T02:58:18.769Z,0.90
2023-11-07T03:00:46.972Z,0.60
2023-11-07T03:03:16.584Z,0.70
2023-11-07T03:05:45.113Z,0.70
2023-11-07T03:08:14.132Z,0.60
2023-11-07T03:10:44.184Z,0.63
2023-11-07T03:13:13.594Z,0.80
2023-11-07T03:15:45.172Z,0.80
2023-11-07T03:18:13.853Z,0.60
2023-11-07T03:20:43.313Z,0.73
2023-11-07T03:23:11.677Z,0.63
2023-11-07T03:25:40.101Z,0.60
2023-11-07T03:28:10.315Z,0.90
2023-11-07T03:30:38.572Z,0.60
2023-11-07T03:33:08.309Z,0.90
2023-11-07T03:35:37.067Z,1.00
2023-11-07T03:38:05.449Z,0.80
2023-11-07T03:40:33.869Z,0.73
2023-11-07T03:43:02.080Z,0.90
2023-11-07T03:45:30.976Z,0.80
2023-11-07T03:47:59.243Z,0.67
2023-11-07T03:50:29.624Z,0.63
2023-11-07T03:52:57.917Z,0.80
2023-11-07T03:55:26.106Z,0.63
2023-11-07T03:57:54.374Z,0.90
2023-11-07T04:00:23.627Z,0.77
2023-11-07T04:02:52.324Z,0.90
2023-11-07T04:05:21.553Z,0.90
2023-11-07T04:07:51.370Z,0.80
2023-11-07T04:10:19.700Z,1.10
2023-11-07T04:12:48.043Z,0.83
2023-11-07T04:15:16.415Z,1.00
2023-11-07T04:17:48.209Z,0.97
2023-11-07T04:20:17.536Z,0.87
2023-11-07T04:22:48.128Z,0.70
2023-11-07T04:25:20.387Z,1.17
2023-11-07T04:27:48.832Z,1.17
2023-11-07T04:30:18.635Z,1.70
2023-11-07T04:32:47.209Z,1.73
2023-11-07T04:35:16.427Z,1.90
2023-11-07T04:37:44.646Z,1.83
2023-11-07T04:40:14.098Z,1.90
2023-11-07T04:42:43.665Z,2.20
2023-11-07T04:45:13.041Z,1.67
2023-11-07T04:47:41.650Z,1.30
2023-11-07T04:50:13.422Z,1.50
2023-11-07T04:52:41.657Z,1.03
2023-11-07T04:55:10.531Z,1.30
2023-11-07T04:57:38.695Z,1.00
2023-11-07T05:00:11.930Z,1.00
2023-11-07T05:02:41.014Z,0.90
2023-11-07T05:05:10.209Z,1.23
2023-11-07T05:07:38.537Z,1.30
2023-11-07T05:10:10.883Z,0.90
2023-11-07T05:12:39.436Z,1.37
2023-11-07T05:15:11.098Z,0.93
2023-11-07T05:17:39.538Z,0.80
2023-11-07T05:20:11.612Z,0.80
2023-11-07T05:22:39.925Z,0.73
2023-11-07T05:25:09.799Z,0.80
2023-11-07T05:27:38.030Z,0.80
2023-11-07T05:30:09.567Z,1.03
2023-11-07T05:32:37.936Z,1.17
2023-11-07T05:35:07.739Z,1.00
2023-11-07T05:37:36.069Z,0.90
2023-11-07T05:40:06.004Z,1.00
2023-11-07T05:42:34.549Z,0.90
2023-11-07T05:45:04.278Z,1.13
2023-11-07T05:47:34.083Z,1.10
2023-11-07T05:50:02.261Z,1.00
2023-11-07T05:52:30.461Z,1.10
2023-11-07T05:54:58.676Z,1.20
2023-11-07T05:57:26.966Z,1.10
2023-11-07T05:59:55.258Z,1.13
2023-11-07T06:02:25.763Z,1.50
2023-11-07T06:04:56.832Z,1.63
2023-11-07T06:07:25.390Z,1.30
2023-11-07T06:09:53.783Z,1.43
2023-11-07T06:12:21.978Z,1.30
2023-11-07T06:14:50.281Z,1.30
2023-11-07T06:17:18.783Z,1.93
2023-11-07T06:19:48.337Z,1.87
2023-11-07T06:22:18.021Z,1.67
2023-11-07T06:24:47.220Z,1.27
2023-11-07T06:27:15.530Z,1.13
2023-11-07T06:29:44.982Z,1.20
2023-11-07T06:32:14.679Z,1.33
2023-11-07T06:34:43.275Z,1.23
2023-11-07T06:37:12.034Z,1.20
2023-11-07T06:39:41.558Z,1.70
2023-11-07T06:42:09.858Z,1.00
2023-11-07T06:44:38.144Z,1.33
2023-11-07T06:47:06.669Z,0.90
2023-11-07T06:49:35.270Z,1.40
2023-11-07T06:52:03.514Z,1.17
2023-11-07T06:54:32.932Z,1.60
2023-11-07T06:57:02.538Z,1.10
2023-11-07T06:59:32.810Z,1.30
2023-11-07T07:02:01.409Z,1.20
2023-11-07T07:04:31.483Z,1.10
2023-11-07T07:06:59.748Z,0.97
2023-11-07T07:09:28.198Z,1.20
2023-11-07T07:11:56.755Z,1.37
2023-11-07T07:14:26.271Z,1.00
2023-11-07T07:16:54.493Z,1.00
2023-11-07T07:19:25.418Z,0.90
2023-11-07T07:21:55.220Z,1.10
2023-11-07T07:24:28.547Z,0.80
2023-11-07T07:26:59.985Z,1.00
2023-11-07T07:29:30.321Z,1.20
2023-11-07T07:32:00.643Z,0.83
2023-11-07T07:34:29.358Z,1.03
2023-11-07T07:36:57.766Z,0.93
2023-11-07T07:39:31.546Z,1.50
2023-11-07T07:42:10.040Z,1.13
2023-11-07T07:44:40.843Z,1.13
2023-11-07T07:47:09.643Z,1.23
2023-11-07T07:49:38.459Z,1.17
2023-11-07T07:52:11.213Z,0.90
2023-11-07T07:57:12.192Z,1.10
2023-11-07T07:59:43.491Z,0.77
2023-11-07T08:02:12.410Z,0.93
2023-11-07T08:04:40.927Z,0.90
2023-11-07T08:07:09.305Z,1.07
2023-11-07T08:09:42.033Z,1.17
2023-11-07T08:12:11.337Z,0.90
2023-11-07T08:14:42.187Z,1.00
2023-11-07T08:17:11.142Z,1.30
2023-11-07T08:19:39.380Z,1.20
2023-11-07T08:22:09.136Z,0.70
2023-11-07T08:24:37.879Z,0.80
2023-11-07T08:27:06.376Z,0.70
2023-11-07T08:29:34.774Z,1.00
2023-11-07T08:32:05.444Z,0.70
2023-11-07T08:34:34.794Z,0.90
2023-11-07T08:37:09.201Z,0.60
2023-11-07T08:39:41.914Z,0.80
2023-11-07T08:42:11.703Z,0.60
2023-11-07T08:44:41.360Z,0.60
2023-11-07T08:47:11.286Z,0.57
2023-11-07T08:49:39.842Z,0.90
2023-11-07T08:52:08.081Z,0.45
2023-11-07T08:54:37.824Z,0.60
2023-11-07T08:57:06.972Z,0.30
2023-11-07T08:59:37.528Z,0.50
2023-11-07T09:02:06.408Z,0.50
2023-11-07T09:04:36.025Z,0.38
2023-11-07T09:07:04.816Z,0.70
2023-11-07T09:09:33.065Z,0.63
2023-11-07T09:12:01.387Z,0.30
2023-11-07T09:14:30.470Z,0.60
2023-11-07T09:16:58.713Z,0.60
2023-11-07T09:19:27.409Z,0.60
2023-11-07T09:21:56.932Z,0.45
2023-11-07T09:24:25.349Z,0.77
2023-11-07T09:26:54.380Z,0.30
2023-11-07T09:29:22.912Z,0.30
2023-11-07T09:31:53.304Z,0.40
2023-11-07T09:34:23.014Z,0.30
2023-11-07T09:36:51.288Z,0.30
2023-11-07T09:39:22.706Z,0.40
2023-11-07T09:41:51.006Z,0.40
2023-11-07T09:44:19.992Z,0.45
2023-11-07T09:46:50.535Z,0.65
2023-11-07T09:49:20.901Z,0.40
2023-11-07T09:51:53.017Z,0.35
2023-11-07T09:54:28.668Z,0.22
2023-11-07T09:57:00.196Z,0.50
2023-11-07T09:59:37.153Z,0.50
2023-11-07T10:02:10.675Z,0.40
2023-11-07T10:04:43.569Z,0.35
2023-11-07T10:07:12.097Z,0.43
2023-11-07T10:09:41.720Z,0.20
2023-11-07T10:12:17.311Z,0.43
2023-11-07T10:14:46.967Z,0.40
2023-11-07T10:17:22.988Z,0.20
2023-11-07T10:20:07.275Z,0.32
2023-11-07T10:22:45.586Z,0.10
2023-11-07T10:25:32.982Z,0.30
2023-11-07T10:28:03.754Z,0.20
2023-11-07T10:30:41.292Z,0.43
2023-11-07T10:33:10.406Z,0.30
2023-11-07T10:35:55.198Z,0.20
2023-11-07T10:38:24.309Z,0.30
2023-11-07T10:40:54.604Z,0.25
2023-11-07T10:43:36.423Z,0.30
2023-11-07T10:46:06.747Z,0.50
2023-11-07T10:48:39.144Z,0.52
2023-11-07T10:51:10.830Z,0.50
2023-11-07T10:53:43.809Z,0.50
2023-11-07T10:56:16.609Z,0.28
2023-11-07T10:58:54.110Z,0.20
2023-11-07T11:01:22.434Z,0.38
2023-11-07T11:03:52.220Z,0.40
2023-11-07T11:06:25.264Z,0.32
2023-11-07T11:08:59.021Z,0.43
2023-11-07T11:11:32.389Z,0.47
2023-11-07T11:14:01.733Z,0.30
2023-11-07T11:16:32.809Z,0.38
2023-11-07T11:19:17.698Z,0.93
2023-11-07T11:21:57.804Z,0.40
2023-11-07T11:24:45.168Z,0.10
2023-11-07T11:27:23.910Z,0.40
2023-11-07T11:29:52.150Z,0.20
2023-11-07T11:32:28.991Z,0.45
2023-11-07T11:35:31.110Z,0.20
2023-11-07T11:38:14.438Z,0.20
2023-11-07T11:40:54.336Z,0.20
2023-11-07T11:43:26.878Z,0.30
2023-11-07T11:45:59.730Z,0.30
2023-11-07T11:49:08.600Z,0.30
2023-11-07T11:51:39.667Z,0.20
2023-11-07T11:54:09.839Z,0.40
2023-11-07T11:57:07.290Z,0.30
2023-11-07T11:59:56.291Z,0.13
2023-11-07T12:02:38.160Z,0.32
2023-11-07T12:05:17.138Z,0.30
2023-11-07T12:07:46.838Z,0.30
2023-11-07T12:10:22.074Z,0.40
2023-11-07T12:13:02.442Z,0.20
2023-11-07T12:15:34.326Z,0.35
2023-11-07T12:18:04.380Z,0.30
2023-11-07T12:20:42.078Z,0.30
2023-11-07T12:23:16.639Z,0.03
2023-11-07T12:25:51.672Z,0.10
2023-11-07T12:28:21.788Z,0.05
2023-11-07T12:30:56.985Z,0.00
2023-11-07T12:33:25.310Z,0.10
2023-11-07T12:35:58.714Z,0.08
2023-11-07T12:38:27.096Z,0.00
2023-11-07T12:40:55.725Z,0.10
2023-11-07T12:43:39.336Z,0.22
2023-11-07T12:46:11.768Z,0.10
2023-11-07T12:48:40.160Z,0.05
2023-11-07T12:51:09.726Z,0.10
2023-11-07T12:53:52.444Z,0.28
2023-11-07T12:56:22.445Z,0.10
2023-11-07T12:58:52.161Z,0.05
2023-11-07T13:01:27.291Z,0.20
2023-11-07T13:03:55.890Z,0.20
2023-11-07T13:06:24.275Z,0.30
2023-11-07T13:08:52.556Z,0.10
2023-11-07T13:11:24.985Z,0.40
2023-11-07T13:13:54.562Z,0.10
2023-11-07T13:16:23.613Z,0.10
2023-11-07T13:18:58.046Z,0.15
2023-11-07T13:21:29.099Z,0.20
2023-11-07T13:23:57.431Z,0.30
2023-11-07T13:26:25.725Z,0.20
2023-11-07T13:28:58.234Z,0.40
2023-11-07T13:31:26.535Z,0.30
2023-11-07T13:33:54.907Z,0.32
2023-11-07T13:36:23.378Z,0.45
2023-11-07T13:38:51.599Z,0.30
2023-11-07T13:41:20.130Z,0.40
2023-11-07T13:43:48.463Z,0.20
2023-11-07T13:46:19.453Z,0.30
2023-11-07T13:48:51.268Z,0.20
2023-11-07T13:51:21.398Z,0.35
2023-11-07T13:53:51.804Z,0.30
2023-11-07T13:56:20.224Z,0.20
2023-11-07T13:58:49.220Z,0.10
2023-11-07T14:01:19.057Z,0.43
2023-11-07T14:03:47.566Z,0.25
2023-11-07T14:06:17.550Z,0.50
2023-11-07T14:08:49.350Z,0.38
2023-11-07T14:11:18.303Z,0.50
2023-11-07T14:13:48.881Z,0.38
2023-11-07T14:16:19.077Z,0.30
2023-11-07T14:18:49.961Z,0.65
2023-11-07T14:21:18.511Z,0.40
2023-11-07T14:23:47.130Z,0.30
2023-11-07T14:26:16.112Z,0.32
2023-11-07T14:28:55.213Z,0.35
2023-11-07T14:31:31.630Z,0.30
2023-11-07T14:34:00.435Z,0.38
2023-11-07T14:36:29.493Z,0.60
2023-11-07T14:39:04.865Z,0.32
2023-11-07T14:41:37.270Z,0.93
2023-11-07T14:44:05.850Z,0.57
2023-11-07T14:46:36.702Z,0.60
2023-11-07T14:49:06.406Z,0.70
2023-11-07T14:51:35.794Z,0.80
2023-11-07T14:54:05.739Z,0.73
2023-11-07T14:56:34.037Z,0.80
2023-11-07T14:59:02.296Z,0.70
2023-11-07T15:01:30.507Z,0.70
2023-11-07T15:04:00.526Z,0.70
2023-11-07T15:06:29.043Z,1.15
2023-11-07T15:08:57.378Z,0.80
2023-11-07T15:11:26.902Z,1.13
2023-11-07T15:13:57.032Z,0.77
2023-11-07T15:16:25.336Z,0.70
2023-11-07T15:18:53.868Z,1.00
2023-11-07T15:21:23.490Z,1.33
2023-11-07T15:23:52.011Z,1.80
2023-11-07T15:26:20.404Z,1.85
2023-11-07T15:28:49.531Z,1.50
2023-11-07T15:31:17.867Z,1.90
2023-11-07T15:33:46.397Z,0.95
2023-11-07T15:36:14.838Z,2.97
2023-11-07T15:38:45.678Z,5.03
2023-11-07T15:41:13.871Z,6.97
2023-11-07T15:43:42.735Z,8.18
2023-11-07T15:46:12.457Z,15.40
2023-11-07T15:48:40.899Z,6.35
2023-11-07T15:51:09.364Z,4.60
2023-11-07T15:53:37.885Z,3.13
2023-11-07T15:56:09.231Z,1.80
2023-11-07T15:58:37.444Z,2.75
2023-11-07T16:01:06.781Z,3.17
2023-11-07T16:03:35.078Z,2.88
2023-11-07T16:06:04.250Z,4.97
2023-11-07T16:08:35.465Z,2.67
2023-11-07T16:11:04.375Z,3.50
2023-11-07T16:13:34.284Z,4.65
2023-11-07T16:16:03.747Z,2.85
2023-11-07T16:18:32.318Z,3.17
2023-11-07T16:21:01.404Z,3.33
2023-11-07T16:23:29.771Z,2.83
2023-11-07T16:26:01.209Z,3.50
2023-11-07T16:28:30.025Z,4.28
2023-11-07T16:30:59.661Z,4.55
2023-11-07T16:33:27.934Z,2.80
2023-11-07T16:35:56.265Z,2.20
2023-11-07T16:38:25.856Z,1.75
2023-11-07T16:40:54.105Z,1.30
2023-11-07T16:43:22.453Z,2.07
2023-11-07T16:45:50.757Z,2.63
2023-11-07T16:48:20.471Z,0.98
2023-11-07T16:50:48.957Z,1.10
2023-11-07T16:53:17.272Z,1.50
2023-11-07T16:55:45.750Z,0.93
2023-11-07T16:58:14.211Z,0.90
2023-11-07T17:00:42.695Z,1.00
2023-11-07T17:03:11.167Z,1.47
2023-11-07T17:05:42.581Z,1.43
2023-11-07T17:08:13.590Z,1.25
2023-11-07T17:10:42.331Z,1.30
2023-11-07T17:13:11.461Z,1.50
2023-11-07T17:15:42.662Z,1.50
2023-11-07T17:18:11.604Z,1.40
2023-11-07T17:20:46.487Z,1.70
2023-11-07T17:23:15.740Z,2.30
2023-11-07T17:25:44.863Z,2.00
2023-11-07T17:28:13.670Z,2.10
2023-11-07T17:30:41.929Z,1.90
2023-11-07T17:33:10.486Z,4.90
2023-11-07T17:35:43.008Z,3.03
2023-11-07T17:38:11.698Z,1.52
2023-11-07T17:40:40.708Z,4.15
2023-11-07T17:43:09.312Z,4.00
2023-11-07T17:45:37.782Z,4.03
2023-11-07T17:48:07.428Z,3.72
2023-11-07T17:50:35.935Z,3.70
2023-11-07T17:53:08.289Z,3.08
2023-11-07T17:55:37.014Z,2.80
2023-11-07T17:58:05.470Z,3.42
2023-11-07T18:00:34.282Z,2.53
2023-11-07T18:03:03.752Z,3.27
2023-11-07T18:05:32.366Z,2.55
2023-11-07T18:08:02.746Z,2.22
2023-11-07T18:10:33.732Z,2.65
2023-11-07T18:13:02.047Z,2.00
2023-11-07T18:15:30.664Z,1.80
2023-11-07T18:17:59.539Z,2.13
2023-11-07T18:20:28.071Z,4.57
2023-11-07T18:22:56.776Z,4.05
2023-11-07T18:25:25.145Z,2.97
2023-11-07T18:27:54.797Z,3.07
2023-11-07T18:30:23.176Z,2.60
2023-11-07T18:32:51.669Z,2.38
2023-11-07T18:35:21.168Z,2.88
2023-11-07T18:37:49.420Z,2.05
2023-11-07T18:40:17.783Z,1.90
2023-11-07T18:42:46.223Z,2.40
2023-11-07T18:45:16.768Z,2.67
2023-11-07T18:47:47.462Z,3.37
2023-11-07T18:50:18.635Z,3.33
2023-11-07T18:52:47.311Z,2.70
2023-11-07T18:55:15.786Z,2.37
2023-11-07T18:57:44.962Z,2.60
2023-11-07T19:00:18.037Z,2.63
2023-11-07T19:02:46.491Z,2.90
2023-11-07T19:05:14.904Z,2.93
2023-11-07T19:07:43.422Z,7.03
2023-11-07T19:10:12.997Z,8.07
2023-11-07T19:12:41.543Z,8.50
2023-11-07T19:15:13.131Z,8.27
2023-11-07T19:17:43.383Z,8.70
2023-11-07T19:20:13.199Z,7.50
2023-11-07T19:22:41.730Z,8.00
2023-11-07T19:25:10.770Z,9.13
2023-11-07T19:27:39.254Z,9.23
2023-11-07T19:30:12.101Z,7.53
2023-11-07T19:32:42.600Z,8.40
2023-11-07T19:35:13.259Z,8.60
2023-11-07T19:37:41.868Z,8.03
2023-11-07T19:40:11.086Z,7.50
2023-11-07T19:42:41.219Z,8.43
2023-11-07T19:45:10.935Z,8.03
2023-11-07T19:47:39.271Z,6.87
2023-11-07T19:50:11.001Z,5.93
2023-11-07T19:52:39.273Z,4.93
2023-11-07T19:55:08.656Z,4.80
2023-11-07T19:57:37.995Z,4.60
2023-11-07T20:00:09.647Z,4.97
2023-11-07T20:02:38.072Z,4.60
2023-11-07T20:05:10.483Z,3.63
2023-11-07T20:07:46.980Z,3.50
2023-11-07T20:10:22.660Z,3.20
2023-11-07T20:12:50.950Z,3.47
2023-11-07T20:15:19.420Z,3.87
2023-11-07T20:17:47.843Z,4.77
2023-11-07T20:20:17.665Z,5.87
2023-11-07T20:22:46.730Z,5.60
2023-11-07T20:25:16.800Z,6.00
2023-11-07T20:27:45.623Z,5.50
2023-11-07T20:30:16.407Z,4.80
2023-11-07T20:32:45.039Z,4.63
2023-11-07T20:35:14.054Z,4.40
2023-11-07T20:37:45.110Z,3.70
2023-11-07T20:40:13.818Z,2.90
2023-11-07T20:42:42.080Z,2.00
2023-11-07T20:45:13.631Z,2.10
2023-11-07T20:47:42.723Z,2.27
2023-11-07T20:50:12.196Z,2.27
2023-11-07T20:52:40.626Z,1.57
2023-11-07T20:55:10.657Z,1.30
2023-11-07T20:57:39.718Z,1.67
2023-11-07T21:00:11.496Z,1.73
2023-11-07T21:02:40.079Z,3.07
2023-11-07T21:05:09.515Z,2.20
2023-11-07T21:07:39.594Z,2.00
2023-11-07T21:10:12.051Z,2.03
2023-11-07T21:12:40.843Z,1.90
2023-11-07T21:15:11.069Z,2.50
2023-11-07T21:17:40.469Z,1.83
2023-11-07T21:20:11.470Z,2.17
2023-11-07T21:22:40.408Z,2.50
2023-11-07T21:25:11.980Z,1.20
2023-11-07T21:27:41.099Z,1.30
2023-11-07T21:30:12.225Z,1.43
2023-11-07T21:32:43.110Z,1.53
2023-11-07T21:35:14.779Z,1.63
2023-11-07T21:37:43.393Z,1.40
2023-11-07T21:40:14.151Z,1.50
2023-11-07T21:42:43.457Z,2.00
2023-11-07T21:45:12.269Z,1.90
2023-11-07T21:47:42.911Z,2.60
2023-11-07T21:50:13.140Z,1.50
2023-11-07T21:52:41.720Z,1.60
2023-11-07T21:55:12.380Z,1.30
2023-11-07T21:57:41.594Z,0.93
2023-11-07T22:00:15.522Z,1.33
2023-11-07T22:02:44.519Z,1.20
2023-11-07T22:05:14.901Z,1.17
2023-11-07T22:07:43.437Z,1.20
2023-11-07T22:10:14.954Z,1.20
2023-11-07T22:12:44.103Z,1.00
2023-11-07T22:15:13.913Z,1.20
2023-11-07T22:17:42.789Z,1.10
2023-11-07T22:20:15.753Z,1.50
2023-11-07T22:22:44.797Z,1.20
2023-11-07T22:25:15.348Z,0.90
2023-11-07T22:27:44.086Z,1.10
2023-11-07T22:30:13.389Z,1.00
2023-11-07T22:32:42.663Z,1.20
2023-11-07T22:35:11.393Z,1.40
2023-11-07T22:37:39.656Z,1.03
2023-11-07T22:40:10.731Z,1.40
2023-11-07T22:42:41.736Z,1.03
2023-11-07T22:45:12.326Z,1.10
2023-11-07T22:47:40.914Z,1.60
2023-11-07T22:50:10.522Z,1.30
2023-11-07T22:52:39.126Z,0.80
2023-11-07T22:55:10.102Z,0.90
2023-11-07T22:57:40.044Z,1.40
2023-11-07T23:00:12.078Z,1.13
2023-11-07T23:02:40.776Z,0.70
2023-11-07T23:05:11.611Z,1.50
2023-11-07T23:07:40.827Z,1.10
2023-11-07T23:10:10.891Z,0.97
2023-11-07T23:12:40.537Z,0.93
2023-11-07T23:15:12.287Z,0.80
2023-11-07T23:17:40.942Z,1.00
2023-11-07T23:20:11.339Z,1.40
2023-11-07T23:22:40.175Z,0.90
2023-11-07T23:25:11.481Z,0.80
2023-11-07T23:27:41.466Z,1.27
2023-11-07T23:30:11.069Z,0.97
2023-11-07T23:32:40.593Z,1.10
2023-11-07T23:35:10.680Z,0.70
2023-11-07T23:37:39.085Z,1.13
2023-11-07T23:40:11.769Z,0.80
2023-11-07T23:42:43.195Z,0.87
2023-11-07T23:45:12.166Z,1.00
2023-11-07T23:47:41.195Z,1.27
2023-11-07T23:50:11.950Z,1.17
2023-11-07T23:52:40.988Z,1.37
2023-11-07T23:55:10.375Z,1.30
2023-11-07T23:57:38.833Z,1.10
